Time;durP1;ratioP1;P1;durP2;ratioP2;P2;SDS_P1;SDS_P2;PMS_P1;PMS_P2;Temp;Humidity;BMP_temperature;BMP_pressure;BME280_temperature;BME280_humidity;BME280_pressure;Samples;Min_cycle;Max_cycle;Signal;HPM_P1;HPM_P2
2023/08/25 00:00:32;;;;;;;3.95;1.77;;;;;;;14.54;77.74;100197.50;5006917;28;20038;-56
2023/08/25 00:02:57;;;;;;;5.97;1.15;;;;;;;14.53;77.95;100198.41;5006561;28;20026;-56
2023/08/25 00:05:22;;;;;;;1.08;0.85;;;;;;;14.52;78.62;100191.44;5006632;28;20114;-54
2023/08/25 00:07:49;;;;;;;1.15;0.80;;;;;;;14.50;78.73;100188.03;5006641;28;20032;-52
2023/08/25 00:10:14;;;;;;;1.27;1.08;;;;;;;14.48;79.05;100187.22;5006810;28;20026;-53
2023/08/25 00:12:40;;;;;;;1.67;0.98;;;;;;;14.44;79.56;100185.59;5006592;28;20380;-54
2023/08/25 00:15:06;;;;;;;1.42;1.02;;;;;;;14.35;79.96;100166.69;5006335;28;20050;-56
2023/08/25 00:17:32;;;;;;;2.28;1.58;;;;;;;14.35;79.80;100164.06;5006386;28;20386;-53
2023/08/25 00:19:59;;;;;;;1.20;0.80;;;;;;;14.37;79.78;100161.41;5006522;28;20034;-53
2023/08/25 00:22:24;;;;;;;1.90;0.73;;;;;;;14.35;80.21;100161.44;5006442;28;20037;-54
2023/08/25 00:24:52;;;;;;;2.47;1.02;;;;;;;14.32;80.34;100158.94;5006408;28;20030;-55
2023/08/25 00:27:18;;;;;;;1.50;1.08;;;;;;;14.31;80.61;100154.63;5006279;28;20101;-55
2023/08/25 00:29:44;;;;;;;2.70;0.80;;;;;;;14.27;80.63;100150.34;5005979;28;20033;-56
2023/08/25 00:32:09;;;;;;;1.85;1.00;;;;;;;14.26;80.98;100153.88;5004625;28;20022;-55
2023/08/25 00:34:35;;;;;;;2.80;0.65;;;;;;;14.21;81.56;100159.22;5006317;28;20097;-56
2023/08/25 00:37:01;;;;;;;5.25;1.42;;;;;;;14.19;81.92;100157.53;5005867;28;20033;-55
2023/08/25 00:39:26;;;;;;;1.40;0.90;;;;;;;14.19;82.00;100160.16;5006235;28;20045;-54
2023/08/25 00:41:54;;;;;;;1.50;1.10;;;;;;;14.18;82.36;100153.22;5005092;28;20040;-56
2023/08/25 00:44:19;;;;;;;1.25;1.10;;;;;;;14.18;82.76;100159.31;5005893;28;20029;-57
2023/08/25 00:46:45;;;;;;;1.73;1.27;;;;;;;14.15;83.21;100150.72;5006074;28;20018;-53
2023/08/25 00:49:10;;;;;;;2.03;1.23;;;;;;;14.17;83.67;100149.75;5006098;28;20022;-57
2023/08/25 00:51:36;;;;;;;1.05;0.75;;;;;;;14.10;84.01;100143.00;5006036;28;20023;-56
2023/08/25 00:54:03;;;;;;;2.90;0.98;;;;;;;14.12;84.07;100143.81;5006072;28;20387;-57
2023/08/25 00:56:29;;;;;;;1.52;1.10;;;;;;;14.12;84.21;100147.28;5005710;28;20026;-56
2023/08/25 00:58:55;;;;;;;1.13;1.02;;;;;;;14.16;84.42;100131.53;5005810;28;20034;-56
2023/08/25 01:01:21;;;;;;;2.17;1.40;;;;;;;14.06;84.80;100108.28;5005713;28;20494;-55
2023/08/25 01:03:48;;;;;;;2.92;0.95;;;;;;;14.05;85.03;100111.81;5005780;28;20053;-55
2023/08/25 01:06:13;;;;;;;4.28;0.95;;;;;;;13.98;84.83;100100.69;5005891;28;20026;-56
2023/08/25 01:08:39;;;;;;;2.97;1.25;;;;;;;14.03;84.41;100108.38;5005715;28;20052;-54
2023/08/25 01:11:17;;;;;;;3.58;1.52;;;;;;;14.01;84.30;100107.56;5005775;28;20034;-55
2023/08/25 01:14:06;;;;;;;1.38;0.90;;;;;;;13.99;84.63;100104.97;5005806;28;20030;-55
2023/08/25 01:16:37;;;;;;;3.03;1.08;;;;;;;13.97;84.79;100098.97;5005274;28;20048;-54
2023/08/25 01:19:05;;;;;;;1.85;1.38;;;;;;;13.98;85.55;100089.38;5005732;28;20086;-54
2023/08/25 01:21:34;;;;;;;0.88;0.85;;;;;;;13.94;85.91;100080.78;5005578;28;20026;-52
2023/08/25 01:24:15;;;;;;;3.75;1.30;;;;;;;13.93;86.36;100076.44;5005561;28;20061;-54
2023/08/25 01:26:41;;;;;;;1.50;1.17;;;;;;;13.98;86.62;100060.66;5005695;28;20351;-53
2023/08/25 01:29:07;;;;;;;1.25;1.15;;;;;;;13.92;86.76;100066.91;5005636;28;20030;-54
2023/08/25 01:31:32;;;;;;;1.08;0.90;;;;;;;13.91;86.87;100053.91;5005234;28;20022;-54
2023/08/25 01:34:01;;;;;;;5.18;1.55;;;;;;;13.92;86.72;100046.03;5005035;28;20021;-56
2023/08/25 01:36:37;;;;;;;3.85;1.23;;;;;;;13.95;87.40;100043.34;5005028;28;20057;-57
2023/08/25 01:39:06;;;;;;;3.72;1.60;;;;;;;13.92;87.46;100050.41;5005388;28;20030;-56
2023/08/25 01:41:44;;;;;;;0.52;0.50;;;;;;;13.95;87.90;100045.09;5005294;28;20026;-55
2023/08/25 01:44:13;;;;;;;1.98;1.00;;;;;;;13.87;87.97;100033.13;5005054;28;20030;-55
2023/08/25 01:46:46;;;;;;;2.53;1.02;;;;;;;13.84;88.07;100022.78;5005130;28;20045;-55
2023/08/25 01:49:14;;;;;;;2.28;1.15;;;;;;;13.87;88.41;100020.09;5005247;28;20033;-56
2023/08/25 01:51:40;;;;;;;3.45;1.75;;;;;;;13.95;88.48;100008.56;5005367;28;20023;-55
2023/08/25 01:54:06;;;;;;;4.40;1.25;;;;;;;13.92;88.69;100008.66;5004817;28;20479;-60
2023/08/25 01:56:31;;;;;;;1.38;1.25;;;;;;;13.86;88.97;100012.31;5005087;28;20023;-54
2023/08/25 01:58:56;;;;;;;3.05;1.15;;;;;;;13.84;89.13;100019.31;5005326;28;20026;-58
2023/08/25 02:01:22;;;;;;;0.68;0.65;;;;;;;13.92;89.35;100021.69;5005119;28;20109;-55
2023/08/25 02:03:47;;;;;;;2.03;1.23;;;;;;;13.88;89.28;100019.19;5005047;28;20057;-54
2023/08/25 02:06:13;;;;;;;2.15;1.10;;;;;;;13.93;89.17;100020.81;5005198;28;20078;-51
2023/08/25 02:08:38;;;;;;;1.58;1.25;;;;;;;13.93;89.07;100021.66;5004883;28;20054;-55
2023/08/25 02:11:04;;;;;;;1.90;0.95;;;;;;;13.95;89.34;100026.81;5008747;28;20041;-54
2023/08/25 02:13:30;;;;;;;1.25;0.70;;;;;;;14.01;89.40;100029.25;5008805;28;20050;-51
2023/08/25 02:15:55;;;;;;;3.22;0.70;;;;;;;14.04;89.50;100010.06;5008470;28;20050;-52
2023/08/25 02:18:21;;;;;;;1.33;1.02;;;;;;;13.99;89.77;99997.16;5008782;28;20026;-50
2023/08/25 02:20:46;;;;;;;0.77;0.75;;;;;;;14.02;89.53;99978.78;5009087;28;20081;-54
2023/08/25 02:23:12;;;;;;;1.27;1.13;;;;;;;14.01;89.90;99971.84;5008699;28;20033;-54
2023/08/25 02:25:37;;;;;;;1.25;0.93;;;;;;;13.92;89.73;99957.31;5008867;28;20029;-55
2023/08/25 02:28:03;;;;;;;0.90;0.90;;;;;;;13.91;89.99;99965.19;5008391;28;20025;-58
2023/08/25 02:30:28;;;;;;;2.88;1.15;;;;;;;13.87;89.99;99964.44;5008371;28;20026;-57
2023/08/25 02:32:57;;;;;;;0.85;0.70;;;;;;;13.91;89.52;99965.19;5008302;28;20019;-57
2023/08/25 02:35:23;;;;;;;0.45;0.45;;;;;;;13.93;89.61;99966.00;5008622;28;20030;-56
2023/08/25 02:38:04;;;;;;;2.22;1.30;;;;;;;13.88;89.62;99976.59;5008362;28;20036;-53
2023/08/25 02:40:30;;;;;;;4.72;1.65;;;;;;;13.86;89.56;99984.47;5008786;28;20027;-56
2023/08/25 02:42:57;;;;;;;1.85;1.25;;;;;;;13.85;89.67;99974.06;5008288;28;20030;-56
2023/08/25 02:45:25;;;;;;;1.98;1.23;;;;;;;13.90;89.28;99981.75;5008378;28;20090;-56
2023/08/25 02:47:52;;;;;;;1.60;1.10;;;;;;;13.91;89.19;99983.47;5008099;28;20030;-57
2023/08/25 02:50:18;;;;;;;4.28;1.05;;;;;;;13.81;89.34;99960.25;5008083;28;20060;-57
2023/08/25 02:52:44;;;;;;;0.75;0.75;;;;;;;13.88;89.34;99981.81;5007977;28;20101;-54
2023/08/25 02:55:11;;;;;;;1.33;0.93;;;;;;;13.90;88.96;99989.59;5008034;28;20022;-55
2023/08/25 02:57:37;;;;;;;1.20;0.75;;;;;;;13.90;88.89;99987.81;5008067;28;20085;-55
2023/08/25 03:00:04;;;;;;;1.42;0.98;;;;;;;13.86;89.08;99968.81;5007977;28;20033;-56
2023/08/25 03:02:31;;;;;;;3.58;1.45;;;;;;;13.88;88.90;99966.16;5007781;28;20030;-57
2023/08/25 03:04:56;;;;;;;6.10;1.10;;;;;;;13.91;88.28;99960.84;5007991;28;20034;-59
2023/08/25 03:07:22;;;;;;;1.50;0.95;;;;;;;13.85;88.48;99950.59;5007877;28;20072;-56
2023/08/25 03:09:47;;;;;;;0.70;0.70;;;;;;;13.87;88.18;99947.03;5007921;28;20042;-56
2023/08/25 03:12:13;;;;;;;1.63;0.80;;;;;;;13.80;88.40;99942.03;5007756;28;20029;-57
2023/08/25 03:14:38;;;;;;;1.95;0.98;;;;;;;13.80;88.65;99942.88;5007823;28;20023;-56
2023/08/25 03:17:03;;;;;;;0.98;0.80;;;;;;;13.79;88.77;99937.69;5007311;28;20086;-56
2023/08/25 03:19:29;;;;;;;0.77;0.77;;;;;;;13.82;88.59;99951.50;5007789;28;20023;-57
2023/08/25 03:21:54;;;;;;;2.90;0.88;;;;;;;13.85;88.25;99943.59;5007283;28;20027;-56
2023/08/25 03:24:20;;;;;;;2.00;1.15;;;;;;;13.87;88.21;99954.00;5007479;28;20019;-57
2023/08/25 03:26:45;;;;;;;0.80;0.68;;;;;;;13.86;88.29;99953.16;5007756;28;20026;-58
2023/08/25 03:29:10;;;;;;;1.27;0.95;;;;;;;13.84;87.80;99952.34;5007626;28;20112;-55
2023/08/25 03:31:36;;;;;;;1.00;0.90;;;;;;;13.87;88.15;99951.38;5007455;28;20058;-58
2023/08/25 03:34:02;;;;;;;2.38;0.95;;;;;;;13.91;87.48;99949.53;5007482;28;20038;-58
2023/08/25 03:36:27;;;;;;;1.17;0.77;;;;;;;13.88;87.28;99940.06;5007650;28;20030;-55
2023/08/25 03:38:53;;;;;;;6.10;1.30;;;;;;;13.82;87.45;99929.78;5007461;28;20037;-58
2023/08/25 03:41:18;;;;;;;1.08;0.95;;;;;;;13.87;86.98;99931.38;5007304;28;20027;-56
2023/08/25 03:43:43;;;;;;;3.67;0.90;;;;;;;13.85;87.21;99941.00;5007481;28;20022;-56
2023/08/25 03:46:09;;;;;;;0.95;0.82;;;;;;;13.81;87.33;99931.56;5007038;28;20104;-55
2023/08/25 03:48:34;;;;;;;0.60;0.60;;;;;;;13.85;87.19;99935.78;5006993;28;20277;-58
2023/08/25 03:51:00;;;;;;;3.13;1.00;;;;;;;13.83;86.95;99924.53;5007291;28;20042;-56
2023/08/25 03:53:25;;;;;;;1.13;1.00;;;;;;;13.75;86.86;99924.75;5007140;28;20026;-60
2023/08/25 03:55:51;;;;;;;0.88;0.60;;;;;;;13.66;86.81;99917.19;5007134;28;20255;-61
2023/08/25 03:58:17;;;;;;;1.40;0.70;;;;;;;13.58;86.65;99917.41;5007165;28;20081;-59
2023/08/25 04:00:42;;;;;;;0.70;0.57;;;;;;;13.48;86.96;99914.19;5006826;28;20073;-57
2023/08/25 04:03:08;;;;;;;1.00;1.00;;;;;;;13.36;87.49;99910.19;5006630;28;20018;-56
2023/08/25 04:05:33;;;;;;;1.40;0.85;;;;;;;13.22;87.87;99910.56;5006939;28;20427;-59
2023/08/25 04:07:59;;;;;;;2.50;0.93;;;;;;;13.12;87.89;99902.16;5006561;28;20026;-59
2023/08/25 04:10:26;;;;;;;6.05;0.90;;;;;;;12.98;88.90;99899.91;5006706;28;20026;-59
2023/08/25 04:12:51;;;;;;;2.03;1.02;;;;;;;12.89;89.19;99897.56;5006721;28;20077;-59
2023/08/25 04:15:20;;;;;;;1.05;0.98;;;;;;;12.83;89.91;99897.69;5006398;28;20466;-59
2023/08/25 04:17:46;;;;;;;1.25;0.90;;;;;;;12.81;90.54;99889.09;5021541;28;20038;-59
2023/08/25 04:20:11;;;;;;;4.18;1.20;;;;;;;12.76;91.51;99886.59;5006559;28;20045;-60
2023/08/25 04:22:37;;;;;;;1.33;0.98;;;;;;;12.77;92.56;99898.72;5006551;28;20079;-60
2023/08/25 04:25:02;;;;;;;1.27;1.02;;;;;;;12.72;93.31;99896.22;5006639;28;20029;-60
2023/08/25 04:27:28;;;;;;;4.15;0.93;;;;;;;12.73;93.87;99879.69;5006506;28;20054;-60
2023/08/25 04:29:54;;;;;;;1.10;0.98;;;;;;;12.79;94.00;99890.88;5006387;28;20104;-60
2023/08/25 04:32:19;;;;;;;0.30;0.30;;;;;;;12.75;94.92;99869.25;5005312;28;20028;-60
2023/08/25 04:34:44;;;;;;;0.25;0.25;;;;;;;12.58;95.44;99865.34;5005035;28;20227;-61
2023/08/25 04:37:10;;;;;;;0.47;0.47;;;;;;;12.55;95.68;99867.16;5005895;28;20022;-59
2023/08/25 04:39:35;;;;;;;0.30;0.30;;;;;;;12.52;96.42;99868.94;5006134;28;20042;-59
2023/08/25 04:42:01;;;;;;;0.20;0.20;;;;;;;12.51;96.33;99876.78;5004563;28;20529;-61
2023/08/25 04:44:26;;;;;;;0.30;0.30;;;;;;;12.44;96.65;99881.31;5005932;28;20026;-60
2023/08/25 04:46:51;;;;;;;0.30;0.30;;;;;;;12.53;97.16;99901.06;5006533;28;20018;-60
2023/08/25 04:49:17;;;;;;;0.30;0.30;;;;;;;12.49;97.28;99915.06;5005650;28;20026;-60
2023/08/25 04:51:42;;;;;;;0.20;0.20;;;;;;;12.48;97.34;99901.16;5006153;28;20089;-60
2023/08/25 04:54:09;;;;;;;0.30;0.30;;;;;;;12.46;97.83;99905.53;5006486;28;20029;-60
2023/08/25 04:56:34;;;;;;;0.30;0.30;;;;;;;12.48;98.31;99906.38;5005956;28;20434;-60
2023/08/25 04:59:00;;;;;;;0.82;0.82;;;;;;;12.46;98.15;99905.53;5006201;28;20038;-60
2023/08/25 05:01:25;;;;;;;0.30;0.30;;;;;;;12.45;98.55;99897.78;5006136;28;20098;-59
2023/08/25 05:03:51;;;;;;;0.30;0.30;;;;;;;12.46;99.15;99896.91;5005966;28;20022;-60
2023/08/25 05:06:16;;;;;;;0.30;0.30;;;;;;;12.44;99.15;99888.25;5006260;28;20024;-60
2023/08/25 05:08:42;;;;;;;0.30;0.30;;;;;;;12.42;99.41;99884.84;5005900;28;20027;-59
2023/08/25 05:11:09;;;;;;;0.30;0.30;;;;;;;12.43;99.70;99889.16;5021028;28;20057;-59
2023/08/25 05:13:34;;;;;;;0.30;0.30;;;;;;;12.41;100.00;99875.31;5004631;28;20109;-59
2023/08/25 05:16:00;;;;;;;0.25;0.25;;;;;;;12.39;100.00;99876.22;5005617;28;20489;-60
2023/08/25 05:18:25;;;;;;;0.30;0.30;;;;;;;12.40;100.00;99884.88;5005614;28;20374;-60
2023/08/25 05:20:56;;;;;;;0.30;0.30;;;;;;;12.43;100.00;99882.19;5005766;28;20086;-60
2023/08/25 05:23:22;;;;;;;0.40;0.40;;;;;;;12.41;100.00;99860.56;5005939;28;20368;-60
2023/08/25 05:25:47;;;;;;;0.30;0.30;;;;;;;12.41;100.00;99857.09;5005933;28;20090;-60
2023/08/25 05:28:12;;;;;;;0.30;0.30;;;;;;;12.35;100.00;99848.53;5005813;28;20483;-61
2023/08/25 05:30:38;;;;;;;0.30;0.30;;;;;;;12.35;100.00;99840.75;5005759;28;20028;-60
2023/08/25 05:33:04;;;;;;;0.30;0.30;;;;;;;12.33;100.00;99842.50;5005498;28;20026;-61
2023/08/25 05:35:29;;;;;;;0.30;0.30;;;;;;;12.35;100.00;99847.69;5005552;28;20038;-60
2023/08/25 05:37:54;;;;;;;0.30;0.30;;;;;;;12.31;100.00;99841.72;5005648;28;20026;-59
2023/08/25 05:40:20;;;;;;;0.30;0.30;;;;;;;12.33;100.00;99849.50;5005592;28;20030;-61
2023/08/25 05:42:45;;;;;;;0.30;0.30;;;;;;;12.29;100.00;99843.50;5005582;28;20110;-61
2023/08/25 05:45:11;;;;;;;0.30;0.30;;;;;;;12.26;100.00;99840.97;5009713;28;20066;-59
2023/08/25 05:47:36;;;;;;;0.30;0.30;;;;;;;12.21;100.00;99830.69;5009546;28;20022;-59
2023/08/25 05:50:02;;;;;;;0.30;0.30;;;;;;;12.26;100.00;99835.75;5009644;28;20046;-60
2023/08/25 05:52:27;;;;;;;0.30;0.30;;;;;;;12.26;100.00;99840.97;5009525;28;20026;-60
2023/08/25 05:54:53;;;;;;;0.20;0.20;;;;;;;12.25;100.00;99836.66;5009664;28;20149;-59
2023/08/25 05:57:18;;;;;;;0.30;0.30;;;;;;;12.23;100.00;99822.81;5009389;28;20026;-60
2023/08/25 05:59:43;;;;;;;0.30;0.30;;;;;;;12.22;100.00;99821.97;5009753;28;20022;-60
2023/08/25 06:02:09;;;;;;;0.30;0.30;;;;;;;12.19;100.00;99819.44;5009438;28;20093;-61
2023/08/25 06:04:34;;;;;;;0.30;0.30;;;;;;;12.14;100.00;99806.53;5009348;28;20085;-60
2023/08/25 06:06:59;;;;;;;0.30;0.30;;;;;;;12.11;100.00;99809.22;5009444;28;20026;-60
2023/08/25 06:09:25;;;;;;;0.30;0.30;;;;;;;12.11;100.00;99811.81;5009298;28;20162;-59
2023/08/25 06:11:50;;;;;;;0.30;0.30;;;;;;;12.04;100.00;99799.84;5009111;28;20022;-60
2023/08/25 06:14:17;;;;;;;0.30;0.30;;;;;;;12.09;100.00;99810.16;5009265;28;20030;-60
2023/08/25 06:16:42;;;;;;;0.30;0.30;;;;;;;12.11;100.00;99808.34;5008961;28;20038;-60
2023/08/25 06:19:08;;;;;;;0.30;0.30;;;;;;;12.09;100.00;99786.75;5009065;28;20026;-60
2023/08/25 06:21:33;;;;;;;0.30;0.30;;;;;;;12.16;100.00;99803.06;5009147;28;20026;-61
2023/08/25 06:23:59;;;;;;;0.30;0.30;;;;;;;12.17;100.00;99784.81;5008998;28;20042;-59
2023/08/25 06:26:25;;;;;;;0.30;0.30;;;;;;;12.19;100.00;99788.22;5008872;28;20081;-60
2023/08/25 06:28:52;;;;;;;0.30;0.30;;;;;;;12.20;100.00;99786.47;5009018;28;20026;-60
2023/08/25 06:31:18;;;;;;;0.30;0.30;;;;;;;12.20;100.00;99776.94;5008896;28;20033;-60
2023/08/25 06:33:45;;;;;;;0.30;0.30;;;;;;;12.23;100.00;99781.19;5008793;28;20026;-59
2023/08/25 06:36:10;;;;;;;0.30;0.30;;;;;;;12.10;100.00;99765.03;5008873;28;20100;-59
2023/08/25 06:38:36;;;;;;;0.30;0.30;;;;;;;12.17;100.00;99773.53;5008929;28;20470;-59
2023/08/25 06:41:03;;;;;;;0.30;0.30;;;;;;;12.20;100.00;99774.31;5008858;28;20022;-59
2023/08/25 06:43:29;;;;;;;0.30;0.30;;;;;;;12.19;100.00;99772.59;5008578;28;20039;-60
2023/08/25 06:45:54;;;;;;;0.30;0.30;;;;;;;12.21;100.00;99777.75;5008468;28;20030;-60
2023/08/25 06:48:20;;;;;;;0.30;0.30;;;;;;;12.19;100.00;99771.75;5008133;28;20104;-60
2023/08/25 06:50:45;;;;;;;0.30;0.30;;;;;;;12.20;100.00;99770.84;5008088;28;20181;-60
2023/08/25 06:53:10;;;;;;;0.30;0.30;;;;;;;12.19;100.00;99769.16;5008500;28;20027;-60
2023/08/25 06:55:36;;;;;;;0.30;0.30;;;;;;;12.19;100.00;99772.59;5007754;28;20121;-60
2023/08/25 06:58:02;;;;;;;0.30;0.30;;;;;;;12.15;100.00;99760.56;5008499;28;20030;-60
2023/08/25 07:00:29;;;;;;;0.20;0.20;;;;;;;12.14;100.00;99759.72;5008612;28;20026;-60
2023/08/25 07:02:54;;;;;;;0.30;0.30;;;;;;;12.12;100.00;99740.66;5008331;28;20053;-59
2023/08/25 07:05:20;;;;;;;0.25;0.25;;;;;;;12.14;100.00;99738.06;5008371;28;20033;-61
2023/08/25 07:07:45;;;;;;;0.30;0.30;;;;;;;12.11;100.00;99722.50;5008136;28;20029;-59
2023/08/25 07:10:13;;;;;;;0.30;0.30;;;;;;;12.07;100.00;99713.91;5008365;28;20479;-61
2023/08/25 07:12:41;;;;;;;0.30;0.30;;;;;;;12.11;100.00;99718.16;5008081;28;20463;-59
2023/08/25 07:15:10;;;;;;;0.30;0.30;;;;;;;12.04;100.00;99700.97;5008043;28;20058;-60
2023/08/25 07:17:36;;;;;;;0.30;0.30;;;;;;;12.15;100.00;99729.34;5007843;28;20030;-60
2023/08/25 07:20:04;;;;;;;0.30;0.30;;;;;;;12.17;100.00;99722.38;5008058;28;20034;-60
2023/08/25 07:22:30;;;;;;;0.30;0.30;;;;;;;12.16;100.00;99707.63;5008207;28;20037;-59
2023/08/25 07:24:56;;;;;;;0.30;0.30;;;;;;;12.17;100.00;99713.69;5008138;28;20026;-61
2023/08/25 07:27:22;;;;;;;0.30;0.30;;;;;;;12.17;100.00;99721.50;5006704;28;20030;-60
2023/08/25 07:29:48;;;;;;;0.80;0.80;;;;;;;12.15;100.00;99698.13;5007779;28;20030;-60
2023/08/25 07:32:13;;;;;;;0.30;0.30;;;;;;;12.14;100.00;99705.06;5007759;28;20049;-53
2023/08/25 07:34:43;;;;;;;0.30;0.30;;;;;;;12.17;100.00;99687.66;5007570;28;20018;-60
2023/08/25 07:37:09;;;;;;;0.30;0.30;;;;;;;12.19;100.00;99698.91;5007399;28;20018;-60
2023/08/25 07:39:34;;;;;;;0.30;0.30;;;;;;;12.20;100.00;99698.88;5007849;28;20057;-60
2023/08/25 07:41:59;;;;;;;0.30;0.30;;;;;;;12.25;100.00;99701.34;5007117;28;20014;-60
2023/08/25 07:44:25;;;;;;;0.30;0.30;;;;;;;12.29;100.00;99684.72;5006280;28;20022;-60
2023/08/25 07:46:50;;;;;;;0.30;0.30;;;;;;;12.31;100.00;99697.72;5006863;28;20023;-60
2023/08/25 07:49:16;;;;;;;0.30;0.30;;;;;;;12.38;100.00;99701.88;5007084;28;20030;-60
2023/08/25 07:51:41;;;;;;;0.30;0.30;;;;;;;12.37;100.00;99695.78;5007285;28;20057;-60
2023/08/25 07:54:07;;;;;;;0.20;0.20;;;;;;;12.35;100.00;99691.50;5007211;28;20501;-59
2023/08/25 07:56:32;;;;;;;0.30;0.30;;;;;;;12.39;100.00;99688.81;5007177;28;20018;-59
2023/08/25 07:58:58;;;;;;;0.30;0.30;;;;;;;12.41;100.00;99693.09;5007283;28;20037;-60
2023/08/25 08:01:23;;;;;;;0.20;0.20;;;;;;;12.44;100.00;99677.41;5006885;28;20090;-61
2023/08/25 08:03:50;;;;;;;0.20;0.20;;;;;;;12.68;100.00;99685.41;5007198;28;20018;-60
2023/08/25 08:06:16;;;;;;;0.30;0.30;;;;;;;12.56;100.00;99682.25;5006582;28;20056;-60
2023/08/25 08:08:43;;;;;;;0.20;0.20;;;;;;;12.57;100.00;99677.91;5006482;28;20026;-59
2023/08/25 08:11:09;;;;;;;0.30;0.30;;;;;;;12.55;100.00;99687.50;5007184;28;20032;-60
2023/08/25 08:13:34;;;;;;;0.82;0.82;;;;;;;12.57;100.00;99683.13;5006863;28;20042;-60
2023/08/25 08:16:00;;;;;;;0.30;0.30;;;;;;;12.60;100.00;99683.03;5006530;28;20043;-61
2023/08/25 08:18:25;;;;;;;0.20;0.20;;;;;;;12.71;100.00;99670.56;5006837;28;20072;-59
2023/08/25 08:20:51;;;;;;;0.30;0.30;;;;;;;12.63;100.00;99673.38;5007002;28;20126;-59
2023/08/25 08:23:16;;;;;;;0.30;0.30;;;;;;;12.66;100.00;99676.78;5006678;28;20085;-60
2023/08/25 08:25:41;;;;;;;0.30;0.30;;;;;;;12.68;100.00;99669.78;5005521;28;20023;-61
2023/08/25 08:28:08;;;;;;;0.30;0.30;;;;;;;12.75;100.00;99671.31;5006870;28;20023;-59
2023/08/25 08:30:34;;;;;;;0.30;0.30;;;;;;;12.77;100.00;99674.72;5006883;28;20033;-60
2023/08/25 08:33:00;;;;;;;0.30;0.30;;;;;;;12.75;100.00;99676.50;5006524;28;20018;-60
2023/08/25 08:35:25;;;;;;;0.20;0.20;;;;;;;12.82;100.00;99679.78;5006617;28;20033;-60
2023/08/25 08:37:50;;;;;;;0.30;0.30;;;;;;;12.84;100.00;99675.41;5006560;28;20057;-60
2023/08/25 08:40:16;;;;;;;0.30;0.30;;;;;;;12.91;100.00;99673.47;5006538;28;20037;-59
2023/08/25 08:42:45;;;;;;;0.30;0.30;;;;;;;12.87;100.00;99683.13;5006209;28;20022;-60
2023/08/25 08:45:10;;;;;;;0.45;0.45;;;;;;;12.91;100.00;99681.28;5006284;28;20089;-59
2023/08/25 08:47:36;;;;;;;0.30;0.30;;;;;;;12.92;100.00;99685.59;5006098;28;20022;-60
2023/08/25 08:50:06;;;;;;;0.30;0.30;;;;;;;12.95;100.00;99677.69;5006398;28;20042;-59
2023/08/25 08:52:31;;;;;;;0.30;0.30;;;;;;;13.01;100.00;99685.31;5006309;28;20030;-60
2023/08/25 08:54:57;;;;;;;0.20;0.20;;;;;;;13.04;100.00;99684.34;5006122;28;20029;-61
2023/08/25 08:57:28;;;;;;;0.65;0.65;;;;;;;13.06;100.00;99683.44;5006077;28;20093;-60
2023/08/25 08:59:58;;;;;;;0.40;0.40;;;;;;;13.17;100.00;99679.63;5006255;28;20026;-59
2023/08/25 09:02:27;;;;;;;0.30;0.30;;;;;;;13.06;100.00;99685.16;5006214;28;20053;-59
2023/08/25 09:04:57;;;;;;;0.30;0.30;;;;;;;13.11;100.00;99676.31;5006000;28;20040;-60
2023/08/25 09:07:32;;;;;;;0.30;0.30;;;;;;;13.08;100.00;99675.56;5006145;28;20441;-60
2023/08/25 09:09:58;;;;;;;0.30;0.30;;;;;;;13.15;100.00;99682.28;5006047;28;20026;-61
2023/08/25 09:12:25;;;;;;;0.30;0.30;;;;;;;13.14;100.00;99681.44;5006212;28;20030;-60
2023/08/25 09:14:50;;;;;;;0.20;0.20;;;;;;;13.17;100.00;99683.09;5005829;28;20050;-60
2023/08/25 09:17:16;;;;;;;0.28;0.28;;;;;;;13.32;100.00;99686.13;5005817;28;20037;-60
2023/08/25 09:19:42;;;;;;;0.30;0.30;;;;;;;13.25;100.00;99680.25;5005563;28;20023;-61
2023/08/25 09:22:13;;;;;;;0.30;0.30;;;;;;;13.26;100.00;99676.72;5006024;28;20027;-60
2023/08/25 09:24:41;;;;;;;0.30;0.30;;;;;;;13.30;100.00;99683.56;5005927;28;20102;-60
2023/08/25 09:27:20;;;;;;;0.30;0.30;;;;;;;13.33;100.00;99678.25;5020953;28;20023;-60
2023/08/25 09:29:45;;;;;;;0.30;0.30;;;;;;;13.32;100.00;99673.09;5005732;28;20026;-61
2023/08/25 09:32:14;;;;;;;0.30;0.30;;;;;;;13.36;100.00;99679.91;5005746;28;20049;-60
2023/08/25 09:34:41;;;;;;;0.30;0.30;;;;;;;13.51;100.00;99676.81;5005738;28;20026;-60
2023/08/25 09:37:07;;;;;;;0.30;0.30;;;;;;;13.69;100.00;99669.31;5005408;28;20049;-60
2023/08/25 09:39:42;;;;;;;0.30;0.30;;;;;;;13.58;100.00;99674.88;5005772;28;20026;-59
2023/08/25 09:42:07;;;;;;;0.30;0.30;;;;;;;13.41;100.00;99662.38;5005588;28;20105;-59
2023/08/25 09:44:33;;;;;;;0.30;0.30;;;;;;;13.55;100.00;99672.38;5005170;28;20077;-59
2023/08/25 09:46:59;;;;;;;0.28;0.28;;;;;;;13.54;100.00;99688.06;5005483;28;20382;-62
2023/08/25 09:49:24;;;;;;;0.30;0.30;;;;;;;13.47;100.00;99687.38;5005359;28;20090;-59
2023/08/25 09:51:51;;;;;;;0.25;0.25;;;;;;;13.47;100.00;99684.78;5005408;28;20463;-60
2023/08/25 09:54:18;;;;;;;0.30;0.30;;;;;;;13.47;100.00;99682.16;5005581;28;20030;-61
2023/08/25 09:56:48;;;;;;;0.30;0.30;;;;;;;13.49;100.00;99681.22;5005151;28;20030;-61
2023/08/25 09:59:15;;;;;;;0.30;0.30;;;;;;;13.52;100.00;99693.34;5005114;28;20022;-59
2023/08/25 10:01:43;;;;;;;0.30;0.30;;;;;;;13.57;100.00;99681.00;5005277;28;20022;-64
2023/08/25 10:04:08;;;;;;;0.30;0.30;;;;;;;13.62;100.00;99683.47;5005126;28;20068;-59
2023/08/25 10:06:36;;;;;;;0.20;0.20;;;;;;;13.68;100.00;99687.63;5005390;28;20033;-61
2023/08/25 10:09:03;;;;;;;1.55;1.45;;;;;;;13.61;100.00;99673.94;5005489;28;20018;-60
2023/08/25 10:11:53;;;;;;;0.30;0.30;;;;;;;13.74;100.00;99684.81;5005474;28;20474;-59
2023/08/25 10:14:23;;;;;;;0.20;0.20;;;;;;;13.87;100.00;99678.28;5004912;28;20038;-60
2023/08/25 10:16:51;;;;;;;0.22;0.22;;;;;;;13.92;100.00;99669.44;5005234;28;20130;-61
2023/08/25 10:19:23;;;;;;;0.30;0.30;;;;;;;13.85;100.00;99674.88;5005180;28;20093;-60
2023/08/25 10:21:50;;;;;;;0.20;0.20;;;;;;;13.93;100.00;99665.94;5005524;28;20037;-59
2023/08/25 10:24:21;;;;;;;0.20;0.20;;;;;;;13.97;100.00;99676.22;5005455;28;20057;-60
2023/08/25 10:26:47;;;;;;;0.30;0.30;;;;;;;14.03;100.00;99677.75;5005472;28;20038;-60
2023/08/25 10:29:17;;;;;;;0.30;0.30;;;;;;;14.06;100.00;99667.19;5005407;28;20031;-60
2023/08/25 10:31:51;;;;;;;0.30;0.30;;;;;;;14.25;100.00;99672.63;5008259;28;20094;-60
2023/08/25 10:34:43;;;;;;;0.20;0.20;;;;;;;14.15;100.00;99681.69;5008568;28;20036;-59
2023/08/25 10:37:13;;;;;;;0.50;0.50;;;;;;;14.13;100.00;99658.25;5008753;28;20027;-61
2023/08/25 10:39:59;;;;;;;0.30;0.30;;;;;;;14.34;100.00;99674.06;5008964;28;20026;-60
2023/08/25 10:42:31;;;;;;;0.20;0.20;;;;;;;14.30;100.00;99666.38;5008671;28;20348;-60
2023/08/25 10:45:08;;;;;;;0.25;0.25;;;;;;;14.41;100.00;99679.06;5008526;28;20026;-61
2023/08/25 10:47:41;;;;;;;0.98;0.98;;;;;;;14.55;100.00;99673.34;5008455;28;20062;-60
2023/08/25 10:50:07;;;;;;;0.30;0.30;;;;;;;14.61;100.00;99681.81;5008842;28;20483;-60
2023/08/25 10:52:33;;;;;;;0.30;0.30;;;;;;;14.56;100.00;99683.72;5007493;28;20026;-61
2023/08/25 10:55:23;;;;;;;0.20;0.20;;;;;;;14.59;100.00;99683.63;5008819;28;20033;-61
2023/08/25 10:57:52;;;;;;;0.30;0.30;;;;;;;14.66;100.00;99681.63;5008829;28;20084;-60
2023/08/25 11:00:27;;;;;;;0.20;0.20;;;;;;;14.73;100.00;99683.09;5008492;28;20037;-60
2023/08/25 11:02:52;;;;;;;0.22;0.22;;;;;;;14.72;100.00;99689.25;5008430;28;20022;-62
2023/08/25 11:05:33;;;;;;;0.30;0.30;;;;;;;14.87;100.00;99687.81;5008370;28;20076;-61
2023/08/25 11:08:03;;;;;;;0.50;0.50;;;;;;;14.90;100.00;99678.19;5008547;28;20030;-63
2023/08/25 11:10:33;;;;;;;0.20;0.20;;;;;;;14.90;100.00;99686.88;5008653;28;20111;-61
2023/08/25 11:13:00;;;;;;;0.30;0.30;;;;;;;14.94;100.00;99690.19;5008071;28;20490;-61
2023/08/25 11:15:26;;;;;;;0.30;0.30;;;;;;;14.91;100.00;99688.56;5008057;28;20054;-60
2023/08/25 11:17:53;;;;;;;0.20;0.20;;;;;;;14.98;100.00;99684.78;5007908;28;20057;-61
2023/08/25 11:20:18;;;;;;;0.30;0.30;;;;;;;14.91;100.00;99679.88;5008001;28;20034;-61
2023/08/25 11:22:54;;;;;;;0.30;0.30;;;;;;;15.04;100.00;99680.25;5007878;28;20510;-61
2023/08/25 11:25:20;;;;;;;0.20;0.20;;;;;;;15.08;100.00;99693.13;5008063;28;20076;-60